createdAt,value
2023-02-17T00:00:30.932Z,100607.27
2023-02-17T00:03:02.167Z,100608.33
2023-02-17T00:05:30.666Z,100607.64
2023-02-17T00:07:59.506Z,100605.59
2023-02-17T00:10:28.821Z,100606.80
2023-02-17T00:12:56.976Z,100606.29
2023-02-17T00:15:26.220Z,100603.21
2023-02-17T00:17:54.368Z,100604.07
2023-02-17T00:20:25.040Z,100603.76
2023-02-17T00:22:53.641Z,100604.78
2023-02-17T00:25:21.842Z,100599.63
2023-02-17T00:27:50.265Z,100600.98
2023-02-17T00:30:18.909Z,100600.47
2023-02-17T00:32:48.326Z,100594.61
2023-02-17T00:35:16.477Z,100588.59
2023-02-17T00:37:45.710Z,100583.08
2023-02-17T00:40:14.373Z,100578.44
2023-02-17T00:42:45.270Z,100570.36
2023-02-17T00:45:13.705Z,100570.55
2023-02-17T00:47:41.914Z,100572.94
2023-02-17T00:50:11.677Z,100573.28
2023-02-17T00:52:39.975Z,100572.59
2023-02-17T00:55:09.255Z,100572.77
2023-02-17T00:57:37.789Z,100575.52
2023-02-17T01:00:06.862Z,100570.52
2023-02-17T01:02:35.875Z,100571.88
2023-02-17T01:05:04.987Z,100569.98
2023-02-17T01:07:33.452Z,100562.58
2023-02-17T01:10:05.406Z,100563.07
2023-02-17T01:12:35.091Z,100562.71
2023-02-17T01:15:03.603Z,100558.24
2023-02-17T01:17:33.171Z,100554.79
2023-02-17T01:20:01.878Z,100547.75
2023-02-17T01:22:34.800Z,100547.41
2023-02-17T01:25:04.286Z,100549.14
2023-02-17T01:27:32.730Z,100549.46
2023-02-17T01:30:01.310Z,100546.03
2023-02-17T01:32:29.660Z,100540.67
2023-02-17T01:34:57.855Z,100539.81
2023-02-17T01:37:26.019Z,100539.64
2023-02-17T01:39:56.034Z,100538.25
2023-02-17T01:42:25.168Z,100531.02
2023-02-17T01:45:19.555Z,100532.39
2023-02-17T01:47:51.112Z,100532.73
2023-02-17T01:50:21.524Z,100537.91
2023-02-17T01:52:50.032Z,100536.38
2023-02-17T01:55:19.196Z,100533.11
2023-02-17T01:57:47.454Z,100534.15
2023-02-17T02:00:17.524Z,100534.48
2023-02-17T02:02:47.274Z,100533.28
2023-02-17T02:05:16.697Z,100532.76
2023-02-17T02:07:46.520Z,100539.98
2023-02-17T02:10:15.046Z,100542.91
2023-02-17T02:12:44.289Z,100540.84
2023-02-17T02:15:22.472Z,100543.41
2023-02-17T02:18:09.111Z,100544.45
2023-02-17T02:20:43.275Z,100544.29
2023-02-17T02:23:30.356Z,100546.00
2023-02-17T02:26:35.960Z,100546.86
2023-02-17T02:29:38.928Z,100543.08
2023-02-17T02:32:25.882Z,100536.55
2023-02-17T02:35:15.024Z,100532.77
2023-02-17T02:37:45.620Z,100532.94
2023-02-17T02:40:15.933Z,100533.63
2023-02-17T02:42:44.533Z,100532.77
2023-02-17T02:45:12.894Z,100528.15
2023-02-17T02:47:55.456Z,100528.50
2023-02-17T02:50:48.155Z,100526.64
2023-02-17T02:53:29.125Z,100525.27
2023-02-17T02:56:16.413Z,100522.16
2023-02-17T02:59:06.182Z,100523.00
2023-02-17T03:01:43.655Z,100526.27
2023-02-17T03:04:21.306Z,100531.92
2023-02-17T03:06:55.478Z,100538.27
2023-02-17T03:09:27.502Z,100535.52
2023-02-17T03:11:56.537Z,100539.95
2023-02-17T03:14:25.928Z,100539.78
2023-02-17T03:16:54.138Z,100545.80
2023-02-17T03:19:22.984Z,100543.56
2023-02-17T03:22:19.829Z,100544.05
2023-02-17T03:24:49.191Z,100543.17
2023-02-17T03:27:17.612Z,100546.60
2023-02-17T03:29:46.381Z,100544.88
2023-02-17T03:32:14.998Z,100546.95
2023-02-17T03:34:43.151Z,100547.78
2023-02-17T03:37:11.284Z,100544.51
2023-02-17T03:39:39.879Z,100550.89
2023-02-17T03:42:08.049Z,100555.20
2023-02-17T03:44:36.406Z,100554.33
2023-02-17T03:47:09.276Z,100547.63
2023-02-17T03:49:37.932Z,100544.70
2023-02-17T03:52:06.067Z,100544.89
2023-02-17T03:54:35.260Z,100548.15
2023-02-17T03:57:03.637Z,100543.16
2023-02-17T03:59:33.261Z,100546.09
2023-02-17T04:02:01.774Z,100547.29
2023-02-17T04:04:30.134Z,100547.28
2023-02-17T04:06:58.783Z,100547.45
2023-02-17T04:09:32.842Z,100549.34
2023-02-17T04:12:01.024Z,100552.79
2023-02-17T04:14:29.508Z,100557.08
2023-02-17T04:16:59.816Z,100552.95
2023-02-17T04:19:28.050Z,100552.62
2023-02-17T04:21:58.158Z,100551.76
2023-02-17T04:24:26.471Z,100553.45
2023-02-17T04:26:56.321Z,100553.44
2023-02-17T04:29:24.740Z,100554.30
2023-02-17T04:31:53.090Z,100555.34
2023-02-17T04:34:22.434Z,100552.76
2023-02-17T04:36:50.990Z,100552.09
2023-02-17T04:39:19.319Z,100551.93
2023-02-17T04:41:47.518Z,100555.36
2023-02-17T04:44:15.891Z,100557.07
2023-02-17T04:46:44.230Z,100553.82
2023-02-17T04:49:12.781Z,100554.51
2023-02-17T04:51:41.184Z,100553.81
2023-02-17T04:54:10.807Z,100554.50
2023-02-17T04:56:38.994Z,100560.70
2023-02-17T04:59:07.671Z,100559.66
2023-02-17T05:01:35.997Z,100563.95
2023-02-17T05:04:08.660Z,100565.52
2023-02-17T05:06:37.639Z,100564.67
2023-02-17T05:09:06.292Z,100564.15
2023-02-17T05:11:35.025Z,100566.40
2023-02-17T05:14:03.428Z,100572.06
2023-02-17T05:16:32.483Z,100576.73
2023-02-17T05:19:00.766Z,100577.08
2023-02-17T05:21:30.074Z,100578.97
2023-02-17T05:23:58.501Z,100580.19
2023-02-17T05:26:27.014Z,100585.52
2023-02-17T05:28:55.544Z,100584.33
2023-02-17T05:31:24.479Z,100587.95
2023-02-17T05:33:55.901Z,100591.89
2023-02-17T05:36:24.120Z,100594.47
2023-02-17T05:38:52.732Z,100590.33
2023-02-17T05:41:20.956Z,100597.90
2023-02-17T05:43:49.611Z,100602.37
2023-02-17T05:46:19.494Z,100602.54
2023-02-17T05:48:48.771Z,100605.30
2023-02-17T05:51:21.755Z,100610.11
2023-02-17T05:53:49.973Z,100612.88
2023-02-17T05:56:18.216Z,100610.98
2023-02-17T05:58:47.956Z,100613.04
2023-02-17T06:01:16.214Z,100617.31
2023-02-17T06:03:44.469Z,100621.10
2023-02-17T06:06:12.874Z,100622.45
2023-02-17T06:08:41.676Z,100619.69
2023-02-17T06:11:11.813Z,100618.16
2023-02-17T06:13:41.120Z,100624.33
2023-02-17T06:16:14.400Z,100622.08
2023-02-17T06:18:45.587Z,100627.58
2023-02-17T06:21:13.885Z,100633.09
2023-02-17T06:23:42.244Z,100636.69
2023-02-17T06:26:10.498Z,100640.47
2023-02-17T06:28:38.679Z,100644.08
2023-02-17T06:31:07.343Z,100645.60
2023-02-17T06:33:35.587Z,100646.13
2023-02-17T06:36:04.920Z,100648.18
2023-02-17T06:38:33.760Z,100651.11
2023-02-17T06:41:01.968Z,100652.48
2023-02-17T06:43:32.815Z,100652.82
2023-02-17T06:46:01.063Z,100653.52
2023-02-17T06:48:33.085Z,100654.55
2023-02-17T06:51:01.333Z,100656.44
2023-02-17T06:53:29.859Z,100665.20
2023-02-17T06:55:58.371Z,100667.76
2023-02-17T06:58:26.681Z,100670.50
2023-02-17T07:00:55.644Z,100670.48
2023-02-17T07:03:24.077Z,100672.52
2023-02-17T07:05:56.463Z,100671.14
2023-02-17T07:08:24.944Z,100671.84
2023-02-17T07:10:53.403Z,100673.37
2023-02-17T07:13:23.374Z,100674.73
2023-02-17T07:15:51.590Z,100680.55
2023-02-17T07:18:20.986Z,100683.13
2023-02-17T07:20:49.402Z,100679.52
2023-02-17T07:23:17.841Z,100683.80
2023-02-17T07:25:46.584Z,100683.94
2023-02-17T07:28:14.775Z,100681.88
2023-02-17T07:30:43.976Z,100680.16
2023-02-17T07:33:14.096Z,100686.35
2023-02-17T07:35:46.019Z,100690.47
2023-02-17T07:38:15.614Z,100685.66
2023-02-17T07:40:43.857Z,100688.07
2023-02-17T07:43:12.788Z,100689.95
2023-02-17T07:45:41.033Z,100688.73
2023-02-17T07:48:10.068Z,100689.76
2023-02-17T07:51:04.429Z,100691.30
2023-02-17T07:53:33.059Z,100693.86
2023-02-17T07:56:09.113Z,100690.59
2023-02-17T07:58:39.354Z,100695.92
2023-02-17T08:01:14.501Z,100700.90
2023-02-17T08:03:43.213Z,100701.23
2023-02-17T08:06:14.075Z,100704.30
2023-02-17T08:09:01.509Z,100706.85
2023-02-17T08:11:50.052Z,100710.62
2023-02-17T08:14:18.474Z,100709.38
2023-02-17T08:16:50.941Z,100711.10
2023-02-17T08:19:19.233Z,100709.88
2023-02-17T08:21:47.485Z,100711.08
2023-02-17T08:24:19.847Z,100717.08
2023-02-17T08:26:51.676Z,100716.02
2023-02-17T08:29:21.066Z,100719.61
2023-02-17T08:31:52.143Z,100726.84
2023-02-17T08:34:20.705Z,100729.40
2023-02-17T08:36:48.961Z,100730.91
2023-02-17T08:39:17.586Z,100731.75
2023-02-17T08:41:46.872Z,100736.03
2023-02-17T08:44:20.302Z,100738.60
2023-02-17T08:46:48.876Z,100735.98
2023-02-17T08:49:20.335Z,100737.67
2023-02-17T08:51:48.550Z,100738.35
2023-02-17T08:54:17.243Z,100739.02
2023-02-17T08:56:46.329Z,100743.48
2023-02-17T08:59:14.698Z,100743.64
2023-02-17T09:01:43.995Z,100745.54
2023-02-17T09:04:13.037Z,100745.70
2023-02-17T09:06:52.041Z,100743.79
2023-02-17T09:09:22.717Z,100742.90
2023-02-17T09:11:51.029Z,100742.18
2023-02-17T09:14:19.478Z,100743.54
2023-02-17T09:16:47.646Z,100745.74
2023-02-17T09:19:16.157Z,100745.86
2023-02-17T09:21:45.718Z,100748.73
2023-02-17T09:24:15.079Z,100754.73
2023-02-17T09:26:43.884Z,100757.46
2023-02-17T09:29:12.087Z,100757.98
2023-02-17T09:31:42.740Z,100758.83
2023-02-17T09:34:11.142Z,100758.48
2023-02-17T09:36:40.507Z,100758.30
2023-02-17T09:39:12.283Z,100759.16
2023-02-17T09:41:47.966Z,100752.98
2023-02-17T09:44:23.869Z,100752.79
2023-02-17T09:47:08.294Z,100755.70
2023-02-17T09:49:42.379Z,100756.19
2023-02-17T09:52:20.583Z,100755.81
2023-02-17T09:54:52.205Z,100761.63
2023-02-17T09:57:21.549Z,100759.20
2023-02-17T09:59:56.124Z,100756.96
2023-02-17T10:02:35.429Z,100755.06
2023-02-17T10:05:06.390Z,100752.13
2023-02-17T10:07:47.212Z,100752.11
2023-02-17T10:10:21.103Z,100759.16
2023-02-17T10:12:52.105Z,100753.13
2023-02-17T10:15:42.268Z,100752.10
2023-02-17T10:18:26.783Z,100757.27
2023-02-17T10:21:01.872Z,100753.30
2023-02-17T10:23:30.588Z,100752.41
2023-02-17T10:26:12.265Z,100756.02
2023-02-17T10:28:51.078Z,100754.98
2023-02-17T10:31:26.504Z,100754.30
2023-02-17T10:34:04.130Z,100753.40
2023-02-17T10:36:59.756Z,100756.48
2023-02-17T10:39:49.861Z,100752.82
2023-02-17T10:42:41.351Z,100749.17
2023-02-17T10:45:33.573Z,100748.87
2023-02-17T10:48:09.540Z,100751.64
2023-02-17T10:50:41.301Z,100749.43
2023-02-17T10:53:22.942Z,100754.09
2023-02-17T10:55:51.141Z,100755.98
2023-02-17T10:58:41.611Z,100756.33
2023-02-17T11:01:10.200Z,100756.16
2023-02-17T11:03:41.218Z,100754.95
2023-02-17T11:06:19.382Z,100757.70
2023-02-17T11:08:53.063Z,100749.58
2023-02-17T11:11:30.616Z,100748.53
2023-02-17T11:14:19.748Z,100750.27
2023-02-17T11:16:54.770Z,100754.71
2023-02-17T11:19:28.496Z,100748.84
2023-02-17T11:21:58.809Z,100749.48
2023-02-17T11:24:27.416Z,100752.58
2023-02-17T11:27:00.064Z,100757.36
2023-02-17T11:29:29.883Z,100760.60
2023-02-17T11:31:59.403Z,100759.22
2023-02-17T11:34:29.615Z,100759.05
2023-02-17T11:37:00.327Z,100759.94
2023-02-17T11:39:28.828Z,100758.94
2023-02-17T11:41:57.840Z,100756.44
2023-02-17T11:44:29.029Z,100756.15
2023-02-17T11:47:04.563Z,100757.20
2023-02-17T11:49:52.028Z,100757.88
2023-02-17T11:52:42.059Z,100756.33
2023-02-17T11:55:21.418Z,100754.56
2023-02-17T11:58:12.204Z,100748.54
2023-02-17T12:01:11.415Z,100745.27
2023-02-17T12:03:43.273Z,100738.15
2023-02-17T12:06:17.379Z,100738.29
2023-02-17T12:08:52.582Z,100739.65
2023-02-17T12:11:33.574Z,100740.14
2023-02-17T12:14:39.545Z,100745.78
2023-02-17T12:17:24.357Z,100744.55
2023-02-17T12:20:14.874Z,100739.88
2023-02-17T12:22:55.834Z,100743.65
2023-02-17T12:25:38.380Z,100741.55
2023-02-17T12:28:41.987Z,100737.11
2023-02-17T12:31:35.956Z,100741.77
2023-02-17T12:34:16.191Z,100738.52
2023-02-17T12:36:44.378Z,100738.75
2023-02-17T12:39:18.821Z,100738.60
2023-02-17T12:41:51.359Z,100740.69
2023-02-17T12:44:26.606Z,100745.02
2023-02-17T12:46:57.720Z,100751.09
2023-02-17T12:49:31.016Z,100747.14
2023-02-17T12:52:11.271Z,100749.91
2023-02-17T12:54:45.166Z,100746.13
2023-02-17T12:57:48.904Z,100750.42
2023-02-17T13:00:30.233Z,100749.22
2023-02-17T13:02:59.616Z,100747.84
2023-02-17T13:05:38.079Z,100743.20
2023-02-17T13:08:11.705Z,100743.39
2023-02-17T13:10:40.820Z,100743.29
2023-02-17T13:13:17.161Z,100740.58
2023-02-17T13:15:46.470Z,100748.90
2023-02-17T13:18:36.404Z,100746.71
2023-02-17T13:21:23.380Z,100744.34
2023-02-17T13:24:36.745Z,100743.84
2023-02-17T13:27:33.212Z,100739.91
2023-02-17T13:30:17.493Z,100740.30
2023-02-17T13:32:46.707Z,100741.39
2023-02-17T13:35:25.077Z,100743.64
2023-02-17T13:37:53.230Z,100745.71
2023-02-17T13:40:22.611Z,100744.16
2023-02-17T13:42:54.828Z,100747.77
2023-02-17T13:45:26.513Z,100746.36
2023-02-17T13:47:59.479Z,100745.00
2023-02-17T13:50:32.198Z,100738.79
2023-02-17T13:53:02.004Z,100736.55
2023-02-17T13:55:32.394Z,100736.40
2023-02-17T13:58:01.003Z,100737.98
2023-02-17T14:00:34.331Z,100734.93
2023-02-17T14:03:32.382Z,100740.98
2023-02-17T14:06:01.249Z,100744.79
2023-02-17T14:08:39.943Z,100743.78
2023-02-17T14:11:09.360Z,100743.61
2023-02-17T14:13:40.312Z,100744.64
2023-02-17T14:16:35.367Z,100745.17
2023-02-17T14:19:19.162Z,100745.54
2023-02-17T14:21:56.496Z,100742.45
2023-02-17T14:24:35.738Z,100744.34
2023-02-17T14:27:08.872Z,100748.63
2023-02-17T14:29:43.008Z,100752.95
2023-02-17T14:32:32.994Z,100752.94
2023-02-17T14:35:20.060Z,100755.03
2023-02-17T14:37:48.939Z,100753.89
2023-02-17T14:40:26.378Z,100754.27
2023-02-17T14:42:55.417Z,100752.93
2023-02-17T14:45:24.538Z,100756.05
2023-02-17T14:47:53.474Z,100756.06
2023-02-17T14:50:21.756Z,100746.27
2023-02-17T14:52:50.024Z,100749.05
2023-02-17T14:55:41.363Z,100749.75
2023-02-17T14:58:20.754Z,100748.75
2023-02-17T15:00:49.114Z,100750.15
2023-02-17T15:03:21.009Z,100752.42
2023-02-17T15:05:49.726Z,100757.76
2023-02-17T15:08:21.519Z,100758.45
2023-02-17T15:10:50.649Z,100760.17
2023-02-17T15:13:21.062Z,100761.89
2023-02-17T15:15:53.177Z,100761.04
2023-02-17T15:18:23.190Z,100755.19
2023-02-17T15:20:51.631Z,100754.33
2023-02-17T15:23:22.288Z,100755.88
2023-02-17T15:25:52.142Z,100754.67
2023-02-17T15:28:21.576Z,100755.38
2023-02-17T15:30:53.259Z,100760.04
2023-02-17T15:33:23.250Z,100760.42
2023-02-17T15:35:53.792Z,100764.23
2023-02-17T15:38:22.538Z,100766.16
2023-02-17T15:40:51.143Z,100774.08
2023-02-17T15:43:21.380Z,100776.15
2023-02-17T15:45:49.521Z,100772.72
2023-02-17T15:48:24.308Z,100771.88
2023-02-17T15:50:53.349Z,100769.14
2023-02-17T15:53:22.088Z,100769.99
2023-02-17T15:55:50.517Z,100771.02
2023-02-17T15:58:20.366Z,100761.94
2023-02-17T16:00:50.517Z,100758.52
2023-02-17T16:03:19.075Z,100754.91
2023-02-17T16:05:48.114Z,100754.05
2023-02-17T16:08:16.329Z,100755.42
2023-02-17T16:10:50.345Z,100756.30
2023-02-17T16:13:26.477Z,100756.80
2023-02-17T16:15:58.218Z,100754.74
2023-02-17T16:18:26.545Z,100752.69
2023-02-17T16:20:55.147Z,100751.84
2023-02-17T16:23:23.292Z,100746.02
2023-02-17T16:25:51.529Z,100744.14
2023-02-17T16:28:21.067Z,100744.14
2023-02-17T16:30:49.769Z,100747.07
2023-02-17T16:33:18.220Z,100746.91
2023-02-17T16:35:46.609Z,100747.78
2023-02-17T16:38:23.196Z,100745.56
2023-02-17T16:40:52.690Z,100745.74
2023-02-17T16:43:26.993Z,100744.54
2023-02-17T16:45:58.711Z,100735.61
2023-02-17T16:48:29.146Z,100737.69
2023-02-17T16:50:57.359Z,100740.25
2023-02-17T16:53:25.788Z,100739.23
2023-02-17T16:55:55.358Z,100740.96
2023-02-17T16:58:24.889Z,100740.13
2023-02-17T17:00:55.049Z,100736.17
2023-02-17T17:03:23.421Z,100743.57
2023-02-17T17:05:52.457Z,100738.42
2023-02-17T17:08:22.165Z,100737.73
2023-02-17T17:10:53.604Z,100734.82
2023-02-17T17:13:23.615Z,100731.72
2023-02-17T17:15:51.998Z,100740.31
2023-02-17T17:18:21.269Z,100743.41
2023-02-17T17:20:50.169Z,100738.24
2023-02-17T17:23:20.258Z,100734.31
2023-02-17T17:25:48.713Z,100735.52
2023-02-17T17:28:19.231Z,100731.92
2023-02-17T17:30:49.374Z,100733.46
2023-02-17T17:33:17.737Z,100729.51
2023-02-17T17:35:46.231Z,100723.51
2023-02-17T17:38:15.702Z,100714.21
2023-02-17T17:40:55.871Z,100712.34
2023-02-17T17:43:24.919Z,100707.70
2023-02-17T17:45:54.742Z,100702.56
2023-02-17T17:48:23.013Z,100700.50
2023-02-17T17:50:52.608Z,100692.27
2023-02-17T17:53:22.600Z,100689.52
2023-02-17T17:55:50.725Z,100690.21
2023-02-17T17:58:21.376Z,100686.09
2023-02-17T18:00:53.133Z,100682.14
2023-02-17T18:03:23.134Z,100683.84
2023-02-17T18:05:51.343Z,100680.59
2023-02-17T18:08:20.248Z,100679.23
2023-02-17T18:10:48.492Z,100676.30
2023-02-17T18:13:22.589Z,100670.46
2023-02-17T18:15:51.561Z,100667.05
2023-02-17T18:18:20.287Z,100667.23
2023-02-17T18:20:48.465Z,100664.30
2023-02-17T18:23:17.618Z,100655.73
2023-02-17T18:25:46.379Z,100650.59
2023-02-17T18:28:14.699Z,100646.12
2023-02-17T18:30:43.207Z,100646.13
2023-02-17T18:33:14.647Z,100648.53
2023-02-17T18:35:46.118Z,100648.35
2023-02-17T18:38:14.967Z,100643.88
2023-02-17T18:40:44.063Z,100639.77
2023-02-17T18:43:12.262Z,100631.88
2023-02-17T18:45:40.482Z,100627.41
2023-02-17T18:48:09.471Z,100623.31
2023-02-17T18:50:37.727Z,100622.13
2023-02-17T18:53:06.347Z,100620.58
2023-02-17T18:55:37.366Z,100613.54
2023-02-17T18:58:05.621Z,100605.48
2023-02-17T19:00:34.149Z,100597.60
2023-02-17T19:03:06.101Z,100587.83
2023-02-17T19:05:34.562Z,100586.63
2023-02-17T19:08:10.254Z,100589.03
2023-02-17T19:10:39.714Z,100589.55
2023-02-17T19:13:07.924Z,100588.20
2023-02-17T19:15:38.059Z,100583.05
2023-02-17T19:18:06.314Z,100583.05
2023-02-17T19:20:34.711Z,100581.33
2023-02-17T19:23:03.074Z,100579.43
2023-02-17T19:25:31.714Z,100578.55
2023-02-17T19:28:00.591Z,100572.36
2023-02-17T19:30:28.949Z,100570.46
2023-02-17T19:32:58.018Z,100570.31
2023-02-17T19:35:27.276Z,100569.09
2023-02-17T19:37:56.110Z,100567.02
2023-02-17T19:40:25.039Z,100561.71
2023-02-17T19:42:55.510Z,100559.30
2023-02-17T19:45:23.674Z,100553.64
2023-02-17T19:47:51.888Z,100549.71
2023-02-17T19:50:20.580Z,100547.33
2023-02-17T19:52:49.067Z,100542.35
2023-02-17T19:55:17.569Z,100544.39
2023-02-17T19:57:45.834Z,100545.07
2023-02-17T20:00:15.209Z,100539.93
2023-02-17T20:02:43.613Z,100540.46
2023-02-17T20:05:12.385Z,100541.48
2023-02-17T20:07:40.964Z,100540.95
2023-02-17T20:10:14.926Z,100534.43
2023-02-17T20:12:44.547Z,100530.98
2023-02-17T20:15:13.635Z,100521.90
2023-02-17T20:17:44.649Z,100516.41
2023-02-17T20:20:12.802Z,100508.31
2023-02-17T20:22:40.940Z,100509.83
2023-02-17T20:25:09.191Z,100508.11
2023-02-17T20:27:37.870Z,100502.63
2023-02-17T20:30:06.724Z,100496.96
2023-02-17T20:32:37.187Z,100488.03
2023-02-17T20:35:06.242Z,100486.84
2023-02-17T20:37:34.792Z,100486.15
2023-02-17T20:40:04.155Z,100483.93
2023-02-17T20:42:33.184Z,100478.28
2023-02-17T20:45:01.698Z,100477.41
2023-02-17T20:47:30.316Z,100466.42
2023-02-17T20:49:59.105Z,100457.34
2023-02-17T20:52:27.888Z,100458.05
2023-02-17T20:54:56.103Z,100452.40
2023-02-17T20:57:26.143Z,100446.39
2023-02-17T20:59:54.305Z,100438.48
2023-02-17T21:02:26.477Z,100430.77
2023-02-17T21:04:54.749Z,100433.02
2023-02-17T21:07:23.473Z,100435.22
2023-02-17T21:09:53.247Z,100423.89
2023-02-17T21:12:21.513Z,100416.33
2023-02-17T21:14:50.040Z,100412.38
2023-02-17T21:17:21.454Z,100405.52
2023-02-17T21:19:50.662Z,100399.85
2023-02-17T21:22:21.980Z,100389.21
2023-02-17T21:24:50.484Z,100384.58
2023-02-17T21:27:19.409Z,100383.38
2023-02-17T21:29:47.703Z,100382.17
2023-02-17T21:32:16.031Z,100372.20
2023-02-17T21:34:44.372Z,100365.84
2023-02-17T21:37:12.824Z,100360.34
2023-02-17T21:39:41.204Z,100352.96
2023-02-17T21:42:09.578Z,100355.73
2023-02-17T21:44:53.190Z,100340.46
2023-02-17T21:47:21.812Z,100336.31
2023-02-17T21:49:53.404Z,100328.59
2023-02-17T21:52:22.074Z,100326.02
2023-02-17T21:54:51.934Z,100311.45
2023-02-17T21:57:20.144Z,100305.65
2023-02-17T21:59:53.949Z,100307.68
2023-02-17T22:02:23.369Z,100298.07
2023-02-17T22:04:56.102Z,100296.69
2023-02-17T22:07:25.208Z,100292.56
2023-02-17T22:09:53.673Z,100287.77
2023-02-17T22:12:22.048Z,100284.81
2023-02-17T22:14:50.661Z,100278.77
2023-02-17T22:17:20.960Z,100272.55
2023-02-17T22:19:49.206Z,100267.92
2023-02-17T22:22:17.358Z,100259.00
2023-02-17T22:24:45.996Z,100259.70
2023-02-17T22:27:14.291Z,100251.61
2023-02-17T22:29:42.482Z,100245.95
2023-02-17T22:32:10.623Z,100241.66
2023-02-17T22:34:38.881Z,100237.55
2023-02-17T22:37:08.128Z,100233.41
2023-02-17T22:39:36.837Z,100223.58
2023-02-17T22:42:06.921Z,100224.74
2023-02-17T22:44:35.152Z,100221.97
2023-02-17T22:47:03.851Z,100219.17
2023-02-17T22:49:32.072Z,100214.71
2023-02-17T22:52:00.398Z,100210.41
2023-02-17T22:54:30.611Z,100210.21
2023-02-17T22:56:58.936Z,100200.98
2023-02-17T22:59:27.224Z,100196.02
2023-02-17T23:02:00.085Z,100192.09
2023-02-17T23:04:29.023Z,100190.67
2023-02-17T23:06:59.270Z,100187.41
2023-02-17T23:09:27.703Z,100186.52
2023-02-17T23:11:58.419Z,100184.80
2023-02-17T23:14:35.557Z,100184.95
2023-02-17T23:17:06.576Z,100180.33
2023-02-17T23:19:36.760Z,100174.13
2023-02-17T23:22:07.451Z,100167.40
2023-02-17T23:24:35.635Z,100162.08
2023-02-17T23:27:04.207Z,100157.27
2023-02-17T23:29:32.781Z,100152.11
2023-02-17T23:32:01.528Z,100147.64
2023-02-17T23:34:30.218Z,100147.48
2023-02-17T23:36:59.135Z,100148.81
2023-02-17T23:39:27.515Z,100150.66
2023-02-17T23:41:56.516Z,100154.25
2023-02-17T23:44:24.789Z,100156.27
2023-02-17T23:46:52.910Z,100146.45
2023-02-17T23:49:22.155Z,100140.42
2023-02-17T23:51:50.391Z,100141.45
2023-02-17T23:54:18.882Z,100137.84
2023-02-17T23:56:47.054Z,100129.64
2023-02-17T23:59:15.322Z,100123.46
